ADDS METAR Data

Data at: 1829 UTC 20 Jul 2018

METAR for:CYZX (Greenwood (Mil), NS, CN)
Text:CYZX 201800Z 35011KT 15SM FEW070 FEW250 28/12 A3018 RMK AC1CI1 SLP221
Temperature: 28.0°C ( 82°F)
Dewpoint: 12.0°C ( 54°F) [RH = 37%]
Pressure (altimeter):30.18 inches Hg (1022.1 mb) [Sea level pressure: 1022.1 mb]
Winds:from the N (350 degrees) at 13 MPH (11 knots; 5.7 m/s)
Visibility: 15 sm ( 24 km)
Ceiling:at least 12,000 feet AGL
Clouds: few clouds at 7000 feet AGL, few clouds at 25000 feet AGL